Time;durP1;ratioP1;P1;durP2;ratioP2;P2;SDS_P1;SDS_P2;PMS_P1;PMS_P2;Temp;Humidity;BMP_temperature;BMP_pressure;BME280_temperature;BME280_humidity;BME280_pressure;Samples;Min_cycle;Max_cycle;Signal;HPM_P1;HPM_P2
2021/11/13 06:23:23;;;;;;;91.82;48.65;;;;;;;;;;6364880;22;20029;-76
2021/11/13 06:26:13;;;;;;;129.43;59.90;;;;;;;;;;6360141;22;20029;-77
2021/11/13 06:29:20;;;;;;;88.57;47.95;;;;;;;;;;6364196;22;20002;-77
2021/11/13 06:42:30;;;;;;;118.50;57.13;;;;;;;;;;6343041;22;20031;-77
2021/11/13 06:44:56;;;;;;;109.15;52.90;;;;;;;;;;6317747;22;20429;-78
2021/11/13 06:47:22;;;;;;;110.07;57.30;;;;;;;;;;6318014;22;20003;-78
2021/11/13 06:49:52;;;;;;;107.28;55.50;;;;;;;;;;6355637;22;19983;-78
2021/11/13 06:52:24;;;;;;;111.13;56.90;;;;;;;;;;6362300;22;19991;-78
2021/11/13 06:54:52;;;;;;;125.53;63.95;;;;;;;;;;6353330;22;20002;-78
2021/11/13 06:57:47;;;;;;;111.50;59.08;;;;;;;;;;6350633;22;19982;-78
2021/11/13 07:01:08;;;;;;;107.65;55.83;;;;;;;;;;6142443;23;20005;-81
2021/11/13 07:12:57;;;;;;;117.35;62.03;;;;;;;;;;6273595;22;20083;-81
2021/11/13 07:15:31;;;;;;;109.80;57.25;;;;;;;;;;6186540;23;20048;-77
2021/11/13 07:17:58;;;;;;;110.28;60.35;;;;;;;;;;6193130;23;20005;-77
2021/11/13 07:20:24;;;;;;;108.07;59.55;;;;;;;;;;6167837;23;20008;-78
2021/11/13 07:22:52;;;;;;;105.80;58.42;;;;;;;;;;6191385;23;20057;-78
2021/11/13 07:25:18;;;;;;;107.75;56.70;;;;;;;;;;6165865;23;20005;-77
2021/11/13 07:27:46;;;;;;;116.20;58.08;;;;;;;;;;6192409;23;20055;-78
2021/11/13 07:30:16;;;;;;;110.78;59.88;;;;;;;;;;6194101;23;20443;-78
2021/11/13 07:32:43;;;;;;;119.60;61.42;;;;;;;;;;6185925;23;20009;-77
2021/11/13 07:35:09;;;;;;;109.95;60.17;;;;;;;;;;6162221;23;20001;-77
2021/11/13 07:37:35;;;;;;;103.40;58.67;;;;;;;;;;6188279;23;20011;-77
2021/11/13 07:40:01;;;;;;;103.53;54.53;;;;;;;;;;6188486;23;20013;-77
2021/11/13 07:45:07;;;;;;;96.38;53.83;;;;;;;;;;6344895;22;20461;-77
2021/11/13 07:50:16;;;;;;;95.75;54.30;;;;;;;;;;6355758;22;19995;-76
2021/11/13 07:53:00;;;;;;;102.60;55.70;;;;;;;;;;6336155;22;19991;-77
2021/11/13 07:55:29;;;;;;;111.22;62.30;;;;;;;;;;6336983;22;20007;-79
2021/11/13 07:58:15;;;;;;;89.07;50.75;;;;;;;;;;6309973;22;20002;-76
2021/11/13 08:00:43;;;;;;;90.82;50.83;;;;;;;;;;6355530;22;20011;-76
2021/11/13 08:03:10;;;;;;;96.93;51.75;;;;;;;;;;6336505;22;20034;-76
2021/11/13 08:05:36;;;;;;;103.60;53.05;;;;;;;;;;6340084;22;20017;-77
2021/11/13 08:08:50;;;;;;;106.75;57.65;;;;;;;;;;6365496;22;20010;-79
2021/11/13 08:14:41;;;;;;;;;;;;;;;;;;6348501;22;20061;-77
2021/11/13 08:17:27;;;;;;;109.50;56.35;;;;;;;;;;6253562;23;19915;-78
2021/11/13 08:19:54;;;;;;;94.60;49.83;;;;;;;;;;6258558;23;20004;-78
2021/11/13 08:22:22;;;;;;;100.65;50.67;;;;;;;;;;6236915;23;20005;-79
2021/11/13 08:24:49;;;;;;;105.72;54.13;;;;;;;;;;6250311;23;20005;-76
2021/11/13 08:27:26;;;;;;;101.15;54.72;;;;;;;;;;6271602;22;19996;-77
2021/11/13 08:30:16;;;;;;;102.25;52.00;;;;;;;;;;6227504;23;20000;-75
2021/11/13 08:32:42;;;;;;;100.95;54.28;;;;;;;;;;6245872;23;20042;-76
2021/11/13 08:35:20;;;;;;;96.38;52.53;;;;;;;;;;6271935;23;20041;-79
2021/11/13 08:37:47;;;;;;;108.90;55.13;;;;;;;;;;6271751;23;20037;-78
2021/11/13 08:40:14;;;;;;;96.70;54.22;;;;;;;;;;6273086;23;20012;-76
2021/11/13 08:42:40;;;;;;;103.40;54.33;;;;;;;;;;6272934;23;20001;-77
2021/11/13 08:45:07;;;;;;;105.43;54.70;;;;;;;;;;6273149;22;20013;-79
2021/11/13 08:47:34;;;;;;;96.35;52.28;;;;;;;;;;6258699;22;19995;-76
2021/11/13 08:50:00;;;;;;;91.32;52.95;;;;;;;;;;6310262;22;20077;-79
2021/11/13 09:02:54;;;;;;;87.10;50.35;;;;;;;;;;6312804;22;20770;-78
2021/11/13 09:05:20;;;;;;;89.47;50.33;;;;;;;;;;6305205;22;20015;-78
2021/11/13 09:07:47;;;;;;;99.43;54.85;;;;;;;;;;6305576;22;20012;-76
2021/11/13 09:10:15;;;;;;;90.35;51.53;;;;;;;;;;6306658;22;20031;-79
2021/11/13 09:12:42;;;;;;;99.70;52.92;;;;;;;;;;6303285;22;20063;-78
2021/11/13 09:15:13;;;;;;;91.72;52.08;;;;;;;;;;6278962;22;20012;-79
2021/11/13 09:17:40;;;;;;;90.68;52.17;;;;;;;;;;6304232;22;19996;-79
2021/11/13 09:20:08;;;;;;;94.18;52.03;;;;;;;;;;6276712;22;19988;-80
2021/11/13 09:22:35;;;;;;;90.55;53.95;;;;;;;;;;6301807;22;19996;-79
2021/11/13 09:25:02;;;;;;;92.50;54.13;;;;;;;;;;6300347;22;20003;-78
2021/11/13 09:27:28;;;;;;;87.40;52.03;;;;;;;;;;6303144;22;20003;-76
2021/11/13 09:29:55;;;;;;;89.00;52.45;;;;;;;;;;6275396;22;19984;-79
2021/11/13 09:32:21;;;;;;;86.45;50.60;;;;;;;;;;6303868;22;20007;-79
2021/11/13 09:34:47;;;;;;;94.47;50.53;;;;;;;;;;6301218;22;20003;-79
2021/11/13 09:37:13;;;;;;;90.07;53.13;;;;;;;;;;6274436;22;20008;-79
2021/11/13 09:39:39;;;;;;;91.10;52.53;;;;;;;;;;6301859;22;20008;-76
2021/11/13 09:42:05;;;;;;;93.50;52.22;;;;;;;;;;6275635;22;20011;-77
2021/11/13 09:47:36;;;;;;;93.82;54.80;;;;;;;;;;6303101;22;19986;-77
2021/11/13 09:50:14;;;;;;;87.50;52.05;;;;;;;;;;6246769;22;20010;-77
2021/11/13 09:53:23;;;;;;;94.65;53.17;;;;;;;;;;6272014;22;19992;-79
2021/11/13 09:56:16;;;;;;;89.28;51.10;;;;;;;;;;6246546;23;20008;-80
2021/11/13 09:59:10;;;;;;;85.30;50.10;;;;;;;;;;6188860;23;20080;-77
2021/11/13 10:01:43;;;;;;;92.32;52.75;;;;;;;;;;6175258;23;20032;-77
2021/11/13 10:04:29;;;;;;;88.50;50.25;;;;;;;;;;6224225;23;20005;-75
2021/11/13 10:06:56;;;;;;;89.35;49.80;;;;;;;;;;6237324;23;20005;-75
2021/11/13 10:09:23;;;;;;;81.43;48.40;;;;;;;;;;6217043;23;19995;-77
2021/11/13 10:11:53;;;;;;;82.22;48.90;;;;;;;;;;6209733;23;20004;-76
2021/11/13 10:14:33;;;;;;;77.00;46.88;;;;;;;;;;6239914;23;20358;-75
2021/11/13 10:17:34;;;;;;;82.40;48.47;;;;;;;;;;6215487;23;19996;-78
2021/11/13 10:20:21;;;;;;;87.25;48.10;;;;;;;;;;6177649;23;20032;-79
2021/11/13 10:22:56;;;;;;;85.38;47.40;;;;;;;;;;6172006;23;20013;-78
2021/11/13 10:25:25;;;;;;;81.40;47.63;;;;;;;;;;6170960;23;20009;-79
2021/11/13 10:28:34;;;;;;;79.95;47.40;;;;;;;;;;6155114;23;20065;-79
2021/11/13 10:31:27;;;;;;;91.45;49.47;;;;;;;;;;6207979;23;20001;-79
2021/11/13 10:34:11;;;;;;;86.15;48.28;;;;;;;;;;6160781;23;20012;-77
2021/11/13 10:37:02;;;;;;;85.00;46.25;;;;;;;;;;6232995;23;19988;-77
2021/11/13 10:39:50;;;;;;;78.88;45.20;;;;;;;;;;6200813;23;19989;-77
2021/11/13 10:47:57;;;;;;;82.30;45.45;;;;;;;;;;6343318;22;19999;-78
2021/11/13 10:50:52;;;;;;;79.70;47.17;;;;;;;;;;6327761;22;20006;-77
2021/11/13 10:57:11;;;;;;;78.20;47.05;;;;;;;;;;6156464;23;20053;-78
2021/11/13 11:00:05;;;;;;;85.63;48.60;;;;;;;;;;6176683;23;20057;-77
2021/11/13 11:06:43;;;;;;;87.57;47.90;;;;;;;;;;6093406;23;20001;-78
2021/11/13 11:09:34;;;;;;;78.95;46.80;;;;;;;;;;6004644;23;19993;-78
2021/11/13 11:12:54;;;;;;;82.20;47.60;;;;;;;;;;5979176;24;20003;-78
2021/11/13 11:19:02;;;;;;;79.65;46.25;;;;;;;;;;5945091;24;20499;-76
2021/11/13 11:21:50;;;;;;;85.05;48.33;;;;;;;;;;5941200;24;20018;-77
2021/11/13 11:24:42;;;;;;;90.35;49.85;;;;;;;;;;5970096;24;19997;-77
2021/11/13 11:27:42;;;;;;;82.35;48.05;;;;;;;;;;5974500;23;20000;-78
2021/11/13 11:33:39;;;;;;;83.22;49.17;;;;;;;;;;5948567;24;20068;-77
2021/11/13 11:36:25;;;;;;;87.63;51.00;;;;;;;;;;5944887;24;20034;-78
2021/11/13 11:38:51;;;;;;;94.30;52.83;;;;;;;;;;5965052;24;20064;-78
2021/11/13 11:41:17;;;;;;;94.13;50.85;;;;;;;;;;5987278;24;20011;-76
2021/11/13 11:43:52;;;;;;;85.05;51.67;;;;;;;;;;5999376;24;20025;-79
2021/11/13 11:46:28;;;;;;;94.20;54.13;;;;;;;;;;6091232;23;20455;-77
2021/11/13 11:48:55;;;;;;;87.82;54.50;;;;;;;;;;6163553;23;20408;-78
2021/11/13 11:51:24;;;;;;;91.60;52.75;;;;;;;;;;6179270;23;20053;-77
2021/11/13 11:54:00;;;;;;;92.40;53.55;;;;;;;;;;6154859;23;20018;-76
2021/11/13 11:56:30;;;;;;;96.95;53.92;;;;;;;;;;6168243;23;20006;-78
2021/11/13 11:58:58;;;;;;;95.45;53.08;;;;;;;;;;6162594;23;20059;-76
2021/11/13 12:01:29;;;;;;;87.10;51.30;;;;;;;;;;6163794;23;20006;-77
2021/11/13 12:04:16;;;;;;;92.38;52.60;;;;;;;;;;6222323;23;20097;-76
2021/11/13 12:06:57;;;;;;;91.80;53.88;;;;;;;;;;6305492;22;20078;-77
2021/11/13 12:09:25;;;;;;;88.05;50.80;;;;;;;;;;6334264;22;20003;-83
2021/11/13 12:12:12;;;;;;;91.22;51.05;;;;;;;;;;6301613;22;20090;-76
2021/11/13 12:14:44;;;;;;;89.60;52.30;;;;;;;;;;6304602;22;20467;-77
2021/11/13 12:17:35;;;;;;;86.13;50.67;;;;;;;;;;6307407;22;19983;-78
2021/11/13 12:20:35;;;;;;;101.75;53.83;;;;;;;;;;6214367;23;19993;-79
2021/11/13 12:23:27;;;;;;;85.15;50.25;;;;;;;;;;6212120;23;19992;-78
2021/11/13 12:25:58;;;;;;;94.93;51.00;;;;;;;;;;6155444;23;20077;-78
2021/11/13 12:28:30;;;;;;;92.88;52.47;;;;;;;;;;6179881;23;20002;-78
2021/11/13 12:31:11;;;;;;;88.72;52.00;;;;;;;;;;6179034;23;20017;-78
2021/11/13 12:33:37;;;;;;;85.97;50.50;;;;;;;;;;6128965;23;20012;-80
2021/11/13 12:36:29;;;;;;;89.20;52.88;;;;;;;;;;6174089;23;20006;-78
2021/11/13 12:39:37;;;;;;;86.18;50.42;;;;;;;;;;6090035;23;20014;-79
2021/11/13 12:42:30;;;;;;;93.63;52.33;;;;;;;;;;6063176;23;20022;-80
2021/11/13 12:45:18;;;;;;;85.05;50.63;;;;;;;;;;6055728;23;20016;-79
2021/11/13 12:47:46;;;;;;;87.80;53.42;;;;;;;;;;6059289;23;20007;-78
2021/11/13 12:50:20;;;;;;;87.65;51.80;;;;;;;;;;6058921;23;20111;-80
2021/11/13 12:52:48;;;;;;;91.68;52.08;;;;;;;;;;6054514;23;19999;-78
2021/11/13 12:55:16;;;;;;;96.00;52.63;;;;;;;;;;6050935;23;20018;-78
2021/11/13 12:57:44;;;;;;;93.43;52.05;;;;;;;;;;6071229;23;20007;-78
2021/11/13 13:00:10;;;;;;;99.53;54.40;;;;;;;;;;6080200;23;20067;-78
2021/11/13 13:02:37;;;;;;;99.30;54.55;;;;;;;;;;6102665;23;20563;-78
2021/11/13 13:05:04;;;;;;;97.70;54.88;;;;;;;;;;6138939;23;20098;-78
2021/11/13 13:07:30;;;;;;;99.45;56.08;;;;;;;;;;6113041;23;20361;-78
2021/11/13 13:10:01;;;;;;;104.78;60.35;;;;;;;;;;6135393;23;20468;-78
2021/11/13 13:12:35;;;;;;;96.38;54.58;;;;;;;;;;6131314;23;20002;-77
2021/11/13 13:15:21;;;;;;;97.20;55.30;;;;;;;;;;6152480;23;20020;-77
2021/11/13 13:17:51;;;;;;;96.63;53.50;;;;;;;;;;6258024;23;20024;-78
2021/11/13 13:20:46;;;;;;;102.32;57.53;;;;;;;;;;6332084;22;19999;-79
2021/11/13 13:23:15;;;;;;;113.80;60.67;;;;;;;;;;6306597;22;20086;-78
2021/11/13 13:25:43;;;;;;;102.05;55.88;;;;;;;;;;6308030;22;19990;-78
2021/11/13 13:28:10;;;;;;;107.47;62.10;;;;;;;;;;6308553;22;19999;-80
2021/11/13 13:31:13;;;;;;;116.53;64.60;;;;;;;;;;6307349;22;19999;-80
2021/11/13 13:39:12;;;;;;;109.32;58.03;;;;;;;;;;6363716;22;20040;-79
2021/11/13 13:41:42;;;;;;;111.93;60.72;;;;;;;;;;6332035;22;20014;-80
2021/11/13 13:44:13;;;;;;;103.63;58.75;;;;;;;;;;6333064;22;20014;-81
2021/11/13 13:47:24;;;;;;;108.13;60.03;;;;;;;;;;6335587;22;19991;-82
2021/11/13 13:50:28;;;;;;;103.47;59.13;;;;;;;;;;6334625;22;20034;-82
2021/11/13 13:58:38;;;;;;;101.93;58.83;;;;;;;;;;6363766;22;20028;-82
2021/11/13 14:04:53;;;;;;;103.63;59.55;;;;;;;;;;6299264;22;20029;-83
2021/11/13 14:07:45;;;;;;;104.38;57.38;;;;;;;;;;6163571;23;20001;-80
2021/11/13 14:39:52;;;;;;;106.57;59.08;;;;;;;;;;6359924;22;20039;-79
2021/11/13 14:42:23;;;;;;;118.30;61.05;;;;;;;;;;6338156;22;20018;-79
2021/11/13 14:44:55;;;;;;;109.70;60.58;;;;;;;;;;6311843;22;20002;-79
2021/11/13 14:48:06;;;;;;;113.30;62.58;;;;;;;;;;6334578;22;20082;-79
2021/11/13 14:51:30;;;;;;;113.32;61.40;;;;;;;;;;6270146;22;20027;-79
2021/11/13 15:00:45;;;;;;;118.70;61.80;;;;;;;;;;6271945;23;20072;-82
2021/11/13 15:37:50;;;;;;;165.95;87.68;;;;;;;;;;6365124;22;20019;-80
2021/11/13 15:40:44;;;;;;;171.93;87.55;;;;;;;;;;6244185;23;20019;-79
2021/11/13 15:43:13;;;;;;;161.80;81.55;;;;;;;;;;6257150;23;19984;-80
2021/11/13 15:46:23;;;;;;;169.73;84.05;;;;;;;;;;6242078;23;20004;-79
2021/11/13 15:49:01;;;;;;;183.32;86.05;;;;;;;;;;6265583;23;20000;-80
2021/11/13 15:51:44;;;;;;;165.80;83.65;;;;;;;;;;6160102;23;20013;-81
2021/11/13 15:54:43;;;;;;;153.55;79.45;;;;;;;;;;6204495;23;20009;-79
2021/11/13 15:57:23;;;;;;;158.07;79.68;;;;;;;;;;6207035;23;20039;-80
2021/11/13 16:00:26;;;;;;;153.82;79.57;;;;;;;;;;6180111;23;20412;-80
2021/11/13 16:02:59;;;;;;;156.65;82.80;;;;;;;;;;6103480;23;20001;-79
2021/11/13 16:08:46;;;;;;;153.85;79.47;;;;;;;;;;6150609;23;20060;-82
2021/11/13 16:11:34;;;;;;;154.50;78.43;;;;;;;;;;6094785;23;20030;-80
2021/11/13 16:15:17;;;;;;;159.05;83.03;;;;;;;;;;6090679;23;20051;-80
2021/11/13 17:09:52;;;;;;;79.50;48.58;;;;;;;;;;6366810;22;20014;-80
2021/11/13 17:12:49;;;;;;;78.00;47.00;;;;;;;;;;6362987;22;20003;-79
2021/11/13 17:15:36;;;;;;;70.80;46.00;;;;;;;;;;6301465;22;20019;-79
2021/11/13 17:18:13;;;;;;;69.75;41.90;;;;;;;;;;6226023;22;20004;-80
2021/11/13 19:15:32;;;;;;;46.47;31.35;;;;;;;;;;6348997;22;20057;-76
2021/11/13 19:18:04;;;;;;;47.42;31.33;;;;;;;;;;6319505;22;20499;-77
2021/11/13 19:20:45;;;;;;;44.53;31.15;;;;;;;;;;6347906;22;20003;-79
2021/11/13 19:23:11;;;;;;;50.88;32.00;;;;;;;;;;6348676;22;20029;-77
2021/11/13 19:25:39;;;;;;;49.58;33.13;;;;;;;;;;6351592;22;19999;-75
2021/11/13 19:37:05;;;;;;;55.47;34.90;;;;;;;;;;6343514;22;21239;-76
2021/11/13 19:42:47;;;;;;;51.92;32.22;;;;;;;;;;6357313;22;20073;-77
2021/11/13 19:45:13;;;;;;;52.47;33.08;;;;;;;;;;6320370;22;20115;-77
2021/11/13 19:48:12;;;;;;;50.88;32.75;;;;;;;;;;6331217;22;20010;-77
2021/11/13 19:51:20;;;;;;;49.78;31.45;;;;;;;;;;6356631;22;20565;-76
